createdAt,value
2023-05-23T00:03:37.598Z,16.74
2023-05-23T00:08:32.299Z,16.77
2023-05-23T00:13:25.567Z,16.76
2023-05-23T00:18:18.704Z,16.75
2023-05-23T00:23:18.854Z,16.66
2023-05-23T00:28:13.198Z,16.74
2023-05-23T00:33:06.394Z,16.66
2023-05-23T00:37:59.887Z,16.51
2023-05-23T00:42:53.054Z,16.54
2023-05-23T00:47:48.924Z,16.48
2023-05-23T00:52:42.498Z,16.19
2023-05-23T00:57:40.599Z,15.98
2023-05-23T01:02:36.965Z,16.12
2023-05-23T01:07:31.818Z,16.03
2023-05-23T01:12:31.828Z,15.86
2023-05-23T01:17:36.212Z,15.79
2023-05-23T01:22:42.996Z,15.65
2023-05-23T01:27:56.492Z,15.44
2023-05-23T01:32:54.862Z,14.83
2023-05-23T01:37:47.988Z,14.98
2023-05-23T01:42:41.386Z,14.47
2023-05-23T01:47:37.379Z,14.86
2023-05-23T01:52:30.959Z,14.70
2023-05-23T01:57:25.637Z,14.57
2023-05-23T02:02:19.689Z,14.68
2023-05-23T02:07:14.333Z,14.61
2023-05-23T02:12:08.143Z,14.67
2023-05-23T02:17:01.366Z,14.32
2023-05-23T02:21:54.598Z,14.56
2023-05-23T02:26:49.181Z,14.53
2023-05-23T02:31:43.225Z,14.49
2023-05-23T02:36:37.184Z,14.28
2023-05-23T02:41:31.204Z,14.42
2023-05-23T02:46:26.396Z,14.35
2023-05-23T02:51:19.630Z,14.45
2023-05-23T02:56:13.546Z,14.47
2023-05-23T03:01:08.487Z,14.42
2023-05-23T03:06:05.085Z,14.37
2023-05-23T03:10:58.336Z,14.10
2023-05-23T03:15:51.557Z,13.90
2023-05-23T03:20:44.878Z,14.15
2023-05-23T03:25:39.748Z,14.19
2023-05-23T03:30:33.124Z,14.23
2023-05-23T03:35:26.252Z,14.18
2023-05-23T03:40:20.868Z,14.22
2023-05-23T03:45:15.996Z,14.19
2023-05-23T03:50:10.327Z,14.08
2023-05-23T03:55:04.259Z,14.14
2023-05-23T03:59:57.528Z,14.28
2023-05-23T04:04:54.350Z,14.40
2023-05-23T04:09:47.771Z,14.55
2023-05-23T04:14:41.502Z,14.60
2023-05-23T04:19:35.816Z,14.75
2023-05-23T04:24:30.507Z,14.82
2023-05-23T04:29:25.220Z,14.91
2023-05-23T04:34:18.938Z,15.02
2023-05-23T04:39:12.212Z,15.03
2023-05-23T04:44:22.879Z,15.23
2023-05-23T04:49:29.561Z,15.40
2023-05-23T04:54:23.194Z,15.43
2023-05-23T04:59:16.643Z,15.56
2023-05-23T05:04:11.424Z,15.62
2023-05-23T05:09:05.631Z,15.62
2023-05-23T05:13:59.101Z,15.76
2023-05-23T05:18:52.825Z,15.68
2023-05-23T05:23:48.759Z,15.87
2023-05-23T05:28:43.852Z,14.92
2023-05-23T05:33:37.823Z,16.29
2023-05-23T05:38:39.536Z,16.52
2023-05-23T05:43:34.156Z,16.65
2023-05-23T05:48:27.481Z,16.91
2023-05-23T05:53:23.145Z,17.11
2023-05-23T05:58:16.815Z,17.29
2023-05-23T06:03:25.690Z,17.64
2023-05-23T06:08:20.934Z,17.79
2023-05-23T06:13:15.762Z,18.18
2023-05-23T06:18:20.188Z,18.39
2023-05-23T06:23:17.576Z,18.58
2023-05-23T06:28:12.939Z,19.04
2023-05-23T06:33:06.236Z,18.88
2023-05-23T06:37:59.439Z,19.64
2023-05-23T06:42:53.981Z,19.96
2023-05-23T06:48:06.017Z,20.04
2023-05-23T06:53:01.305Z,20.25
2023-05-23T06:57:55.858Z,20.44
2023-05-23T07:02:50.030Z,20.10
2023-05-23T07:07:46.428Z,20.79
2023-05-23T07:12:39.890Z,20.93
2023-05-23T07:17:36.341Z,21.12
2023-05-23T07:22:30.231Z,21.19
2023-05-23T07:27:24.799Z,21.39
2023-05-23T07:32:18.420Z,21.64
2023-05-23T07:37:14.642Z,21.80
2023-05-23T07:42:10.396Z,22.10
2023-05-23T07:47:05.249Z,22.31
2023-05-23T07:51:59.753Z,22.49
2023-05-23T07:56:55.034Z,22.39
2023-05-23T08:01:50.708Z,22.89
2023-05-23T08:07:03.667Z,23.11
2023-05-23T08:12:09.526Z,23.71
2023-05-23T08:17:04.995Z,24.43
2023-05-23T08:21:58.954Z,25.12
2023-05-23T08:26:53.433Z,25.92
2023-05-23T08:31:49.625Z,26.62
2023-05-23T08:36:43.287Z,27.32
2023-05-23T08:41:41.782Z,28.15
2023-05-23T08:46:45.937Z,28.74
2023-05-23T08:51:48.973Z,29.21
2023-05-23T08:56:48.047Z,29.57
2023-05-23T09:01:47.904Z,29.78
2023-05-23T09:06:42.367Z,30.00
2023-05-23T09:11:37.336Z,30.00
2023-05-23T09:16:36.102Z,29.92
2023-05-23T09:21:35.989Z,29.96
2023-05-23T09:26:40.969Z,30.17
2023-05-23T09:31:34.722Z,30.09
2023-05-23T09:36:30.514Z,30.11
2023-05-23T09:41:25.172Z,30.28
2023-05-23T09:46:21.494Z,30.09
2023-05-23T09:51:15.643Z,29.82
2023-05-23T09:56:12.739Z,29.64
2023-05-23T10:01:09.045Z,28.97
2023-05-23T10:06:09.447Z,28.79
2023-05-23T10:11:41.451Z,29.54
2023-05-23T10:16:41.716Z,29.63
2023-05-23T10:21:43.573Z,30.07
2023-05-23T10:26:38.706Z,30.73
2023-05-23T10:31:32.556Z,31.35
2023-05-23T10:36:34.590Z,31.56
2023-05-23T10:41:35.373Z,32.16
2023-05-23T10:46:52.290Z,31.85
2023-05-23T10:51:51.367Z,32.21
2023-05-23T10:56:46.120Z,32.59
2023-05-23T11:01:41.354Z,32.28
2023-05-23T11:06:39.627Z,32.35
2023-05-23T11:11:55.657Z,31.41
2023-05-23T11:16:49.384Z,31.16
2023-05-23T11:21:44.933Z,32.10
2023-05-23T11:26:38.334Z,33.15
2023-05-23T11:31:38.812Z,33.76
2023-05-23T11:36:32.771Z,33.41
2023-05-23T11:41:26.509Z,33.48
2023-05-23T11:46:20.154Z,34.37
2023-05-23T11:51:15.018Z,34.97
2023-05-23T11:56:08.493Z,34.54
2023-05-23T12:01:02.690Z,33.97
2023-05-23T12:05:56.399Z,34.08
2023-05-23T12:10:59.679Z,35.23
2023-05-23T12:15:56.291Z,35.36
2023-05-23T12:20:51.499Z,35.85
2023-05-23T12:25:44.903Z,36.42
2023-05-23T12:30:44.989Z,36.66
2023-05-23T12:35:38.482Z,36.93
2023-05-23T12:40:32.331Z,36.88
2023-05-23T12:45:32.713Z,37.09
2023-05-23T12:50:27.528Z,37.00
2023-05-23T12:55:20.760Z,36.80
2023-05-23T13:00:15.101Z,36.93
2023-05-23T13:05:08.811Z,37.27
2023-05-23T13:10:03.779Z,37.21
2023-05-23T13:14:58.027Z,37.85
2023-05-23T13:19:51.451Z,37.98
2023-05-23T13:24:44.836Z,37.67
2023-05-23T13:29:39.407Z,37.68
2023-05-23T13:34:32.599Z,37.61
2023-05-23T13:39:26.297Z,37.08
2023-05-23T13:44:21.804Z,37.78
2023-05-23T13:49:16.316Z,37.60
2023-05-23T13:54:09.673Z,37.73
2023-05-23T13:59:02.866Z,37.76
2023-05-23T14:03:56.326Z,37.52
2023-05-23T14:08:50.950Z,37.05
2023-05-23T14:13:48.107Z,36.69
2023-05-23T14:18:41.606Z,35.55
2023-05-23T14:23:34.912Z,34.26
2023-05-23T14:28:30.745Z,32.79
2023-05-23T14:33:24.140Z,31.63
2023-05-23T14:38:17.428Z,30.87
2023-05-23T14:43:10.860Z,30.20
2023-05-23T14:48:06.191Z,29.89
2023-05-23T14:53:01.908Z,29.57
2023-05-23T14:57:55.133Z,29.33
2023-05-23T15:02:48.456Z,28.64
2023-05-23T15:07:42.955Z,28.89
2023-05-23T15:12:36.145Z,28.67
2023-05-23T15:17:29.407Z,28.47
2023-05-23T15:27:24.698Z,28.16
2023-05-23T15:32:17.983Z,27.63
2023-05-23T15:37:11.220Z,27.76
2023-05-23T15:42:04.526Z,27.53
2023-05-23T15:46:59.040Z,27.42
2023-05-23T15:51:53.386Z,27.23
2023-05-23T15:56:46.862Z,27.15
2023-05-23T16:01:41.793Z,26.48
2023-05-23T16:06:36.746Z,27.02
2023-05-23T16:11:29.915Z,26.91
2023-05-23T16:16:23.164Z,26.77
2023-05-23T16:21:20.593Z,26.53
2023-05-23T16:26:16.020Z,26.45
2023-05-23T16:31:09.259Z,26.21
2023-05-23T16:36:02.491Z,26.01
2023-05-23T16:40:55.720Z,25.83
2023-05-23T16:45:50.384Z,25.68
2023-05-23T16:50:43.773Z,25.55
2023-05-23T16:55:37.093Z,25.36
2023-05-23T17:00:30.276Z,25.13
2023-05-23T17:05:25.112Z,24.81
2023-05-23T17:10:20.369Z,24.85
2023-05-23T17:15:13.742Z,24.73
2023-05-23T17:20:08.569Z,24.66
2023-05-23T17:25:03.742Z,24.53
2023-05-23T17:29:58.087Z,24.40
2023-05-23T17:34:51.428Z,24.21
2023-05-23T17:39:44.610Z,24.18
2023-05-23T17:44:39.387Z,24.06
2023-05-23T17:49:32.675Z,23.95
2023-05-23T17:54:25.927Z,23.84
2023-05-23T17:59:19.188Z,23.71
2023-05-23T18:04:13.823Z,23.57
2023-05-23T18:09:07.089Z,23.47
2023-05-23T18:14:00.343Z,23.42
2023-05-23T18:18:53.647Z,22.97
2023-05-23T18:23:48.585Z,23.30
2023-05-23T18:28:41.962Z,23.23
2023-05-23T18:33:35.836Z,23.16
2023-05-23T18:38:30.467Z,23.07
2023-05-23T18:43:25.201Z,22.98
2023-05-23T18:48:18.495Z,22.93
2023-05-23T18:53:12.146Z,22.87
2023-05-23T18:58:05.462Z,21.83
2023-05-23T19:03:00.274Z,22.71
2023-05-23T19:07:53.560Z,22.54
2023-05-23T19:12:47.159Z,22.55
2023-05-23T19:17:41.295Z,22.49
2023-05-23T19:22:50.243Z,22.32
2023-05-23T19:27:44.710Z,22.32
2023-05-23T19:32:38.129Z,22.48
2023-05-23T19:37:31.476Z,22.32
2023-05-23T19:42:26.506Z,22.36
2023-05-23T19:47:21.425Z,22.47
2023-05-23T19:52:17.963Z,21.52
2023-05-23T19:57:11.180Z,22.39
2023-05-23T20:02:05.888Z,22.29
2023-05-23T20:06:59.784Z,22.22
2023-05-23T20:11:56.102Z,20.93
2023-05-23T20:16:49.332Z,21.81
2023-05-23T20:21:43.914Z,21.70
2023-05-23T20:26:37.089Z,21.45
2023-05-23T20:31:30.310Z,21.22
2023-05-23T20:36:23.590Z,21.01
2023-05-23T20:41:18.086Z,20.12
2023-05-23T20:46:14.758Z,20.60
2023-05-23T20:51:08.181Z,20.45
2023-05-23T20:56:01.864Z,20.23
2023-05-23T21:00:56.486Z,20.12
2023-05-23T21:05:50.035Z,20.05
2023-05-23T21:10:45.061Z,19.11
2023-05-23T21:15:40.205Z,19.88
2023-05-23T21:20:45.480Z,19.09
2023-05-23T21:25:54.336Z,19.68
2023-05-23T21:30:47.465Z,19.59
2023-05-23T21:35:42.156Z,19.50
2023-05-23T21:40:35.452Z,19.45
2023-05-23T21:45:30.657Z,19.42
2023-05-23T21:50:23.744Z,19.32
2023-05-23T21:55:18.201Z,19.28
2023-05-23T22:00:13.222Z,19.24
2023-05-23T22:05:07.652Z,19.12
2023-05-23T22:10:00.771Z,19.00
2023-05-23T22:14:55.732Z,18.88
2023-05-23T22:19:48.948Z,18.90
2023-05-23T22:24:43.493Z,18.71
2023-05-23T22:29:36.618Z,18.74
2023-05-23T22:34:31.161Z,18.67
2023-05-23T22:39:24.359Z,18.69
2023-05-23T22:44:17.534Z,18.67
2023-05-23T22:49:10.828Z,18.75
2023-05-23T22:54:05.368Z,18.75
2023-05-23T22:58:58.684Z,18.64
2023-05-23T23:03:51.845Z,18.49
2023-05-23T23:08:47.354Z,18.50
2023-05-23T23:13:41.942Z,18.33
2023-05-23T23:18:35.091Z,18.24
2023-05-23T23:23:28.339Z,18.16
2023-05-23T23:28:21.710Z,18.01
2023-05-23T23:33:16.415Z,18.02
2023-05-23T23:38:09.674Z,18.02
2023-05-23T23:43:02.846Z,17.91
2023-05-23T23:47:56.089Z,17.86
2023-05-23T23:52:50.712Z,17.82
2023-05-23T23:57:43.920Z,17.71
